Disclaimer

Please do not use the information listed here in-flight or in-navigation, as they are not provided to us by the airports but are provided by volunteers, so they might be outdated.

Search


Regions


Airport information page

Radio informations:
Tower (TWR) - 118.1 MHz
RDO - 124.0 MHz
Approach (APP) - 122.3 MHz

Airport informations:
Latitude: 18° 10' 41.13" N
Longitude: 120° 31' 53.48" E
Elevation: 25 feet - 8 meters
Operating hours: Remarks
Operating agency: Civil government, landing fees and diplomatic clearance may be required
Timezone: UTC+8
Fuel: Jet A1, without icing nhibitor.

100/130 octane gasoline, leaded, MIL-L-5572F (GREEN)

Runway information:
01/19 - 9120 x 148 feet< - >2780 x 45 meters

Recent METARs:
RPLI 190100Z 09002KT 9999 FEW018 29/23 Q1014 NOSIG RMK A2994
RPLI 190100Z 09002KT 9999 FEW018 29/23 Q1014 NOSIG RMK A2994
RPLI 190200Z 33006KT 9999 FEW018 BKN290 30/23 Q1015 NOSIG RMK A2997

Airport on the map: